Flight Track Log - Related Links

Times and Time Zones

All times are in EDT time to prevent confusion due to time zone crossing. See the TRS156 flight status page for this flight to view local times or setup timezone preferences in your user account.

Time Position Orientation Groundspeed Altitude Reporting Facility
EDT Latitude Longitude Course Direction KTS MPH feet Rate Location/Type
Sat 05:23:51 PM 40.8000 -73.8667 349° North 163 188 1,100  Level New York TRACON
Sat 05:24:51 PM 40.8667 -73.8833 349° North 259 298 2,800 2,400 Climbing New York TRACON
Sat 05:25:51 PM 40.9167 -73.9333 323° Northwest 273 314 5,900 2,800 Climbing New York TRACON
Sat 05:26:51 PM 40.9000 -74.0333 258° West 291 335 8,400 2,700 Climbing New York TRACON
Sat 05:27:51 PM 40.8667 -74.1333 246° West 301 346 11,300 2,800 Climbing New York TRACON
Sat 05:28:51 PM 40.8333 -74.2333 246° West 321 369 14,000 1,932 Climbing New York TRACON
Sat 05:30:48 PM 40.7567 -74.4419 244° Southwest 324 373 17,000 1,017 Climbing New York Center
Sat 05:31:48 PM 40.7197 -74.5550 247° West 324 373 17,000 393 Level New York Center
Sat 05:32:50 PM 40.6781 -74.6814 247° West 367 422 17,800 1,131 Climbing New York Center
Sat 05:33:50 PM 40.6344 -74.8019 245° Southwest 394 453 19,300 1,627 Climbing New York Center
Sat 05:34:48 PM 40.5900 -74.9442 248° West 413 475 21,000 1,650 Climbing New York Center
Sat 05:35:50 PM 40.5289 -75.0797 239° Southwest 425 489 22,600 1,550 Climbing New York Center
Sat 05:36:48 PM 40.4489 -75.2083 231° Southwest 438 504 24,100 1,322 Climbing New York Center
Sat 05:37:48 PM 40.3672 -75.3339 230° Southwest 454 522 25,200 1,131 Climbing New York Center
Sat 05:38:50 PM 40.2869 -75.4672 232° Southwest 459 528 26,400 1,100 Climbing New York Center
Sat 05:39:48 PM 40.2042 -75.6031 231° Southwest 470 541 27,400 1,169 Climbing New York Center
Sat 05:40:48 PM 40.1294 -75.7497 236° Southwest 483 556 28,700 1,289 Climbing New York Center
Sat 05:41:49 PM 40.0586 -75.8939 237° Southwest 483 556 30,000 1,200 Climbing New York Center
Sat 05:43:33 PM 39.9269 -76.1461 236° Southwest 500 575 32,000 727 Climbing Washington Center
Sat 05:44:34 PM 39.8533 -76.2914 237° Southwest 500 575 32,000  Level Washington Center
Sat 05:45:33 PM 39.7817 -76.4339 237° Southwest 490 564 32,000  Level Washington Center
Sat 05:46:35 PM 39.6969 -76.5919 235° Southwest 490 564 32,000  Level Washington Center
Sat 05:47:35 PM 39.6208 -76.7364 236° Southwest 490 564 32,000  Level Washington Center
Sat 05:48:33 PM 39.5486 -76.8753 236° Southwest 490 564 32,000  Level Washington Center
Sat 05:49:34 PM 39.4658 -77.0083 231° Southwest 490 564 32,000  Level Washington Center
Sat 05:50:35 PM 39.3600 -77.1217 220° Southwest 485 558 32,000  Level Washington Center
Sat 05:51:33 PM 39.2567 -77.2294 219° Southwest 485 558 32,000  Level Washington Center
Sat 05:52:34 PM 39.1550 -77.3369 219° Southwest 485 558 32,000  Level Washington Center
Sat 05:53:34 PM 39.0533 -77.4414 219° Southwest 479 551 32,000  Level Washington Center
Sat 05:54:33 PM 38.9539 -77.5428 218° Southwest 479 551 32,000  Level Washington Center
Sat 05:55:33 PM 38.8500 -77.6522 219° Southwest 479 551 32,000  Level Washington Center
Sat 05:56:34 PM 38.7522 -77.7506 218° Southwest 490 564 32,000  Level Washington Center
Sat 05:57:35 PM 38.6544 -77.8539 220° Southwest 484 557 32,000  Level Washington Center
Sat 05:58:33 PM 38.5750 -77.9792 231° Southwest 463 533 32,000  Level Washington Center
Sat 05:59:34 PM 38.4992 -78.1092 233° Southwest 463 533 32,000  Level Washington Center
Sat 06:00:34 PM 38.4236 -78.2367 233° Southwest 463 533 32,000  Level Washington Center
Sat 06:01:33 PM 38.3478 -78.3636 233° Southwest 463 533 32,000  Level Washington Center
Sat 06:02:35 PM 38.2694 -78.4956 233° Southwest 468 539 32,000  Level Washington Center
Sat 06:03:35 PM 38.1911 -78.6300 233° Southwest 476 548 32,000  Level Washington Center
Sat 06:04:33 PM 38.1019 -78.7742 232° Southwest 469 540 32,000  Level Washington Center
Sat 06:05:35 PM 38.0300 -78.8922 232° Southwest 474 545 32,000  Level Washington Center
Sat 06:06:35 PM 37.9422 -79.0386 233° Southwest 474 545 32,000  Level Washington Center
Sat 06:07:33 PM 37.8658 -79.1533 230° Southwest 474 545 32,000  Level Washington Center
Sat 06:08:34 PM 37.7789 -79.2781 229° Southwest 480 552 32,000  Level Washington Center
Sat 06:09:34 PM 37.6850 -79.4100 228° Southwest 480 552 32,000  Level Washington Center
Sat 06:10:35 PM 37.6042 -79.5186 227° Southwest 480 552 32,000  Level Washington Center
Sat 06:11:33 PM 37.5100 -79.6525 228° Southwest 475 547 32,000  Level Washington Center
Sat 06:12:33 PM 37.4225 -79.7708 227° Southwest 475 547 32,000  Level Washington Center
Sat 06:13:34 PM 37.3547 -79.8586 226° Southwest 464 534 32,000  Level Washington Center
Sat 06:14:35 PM 37.2514 -80.0042 228° Southwest 464 534 32,000  Level Washington Center
Sat 06:15:59 PM 37.1275 -80.1678 227° Southwest 461 531 32,000  Level Atlanta Center
Sat 06:16:59 PM 37.0436 -80.2892 229° Southwest 461 531 32,000  Level Atlanta Center
Sat 06:17:59 PM 36.9553 -80.3972 224° Southwest 449 517 32,000  Level Atlanta Center
Sat 06:18:59 PM 36.8669 -80.5128 226° Southwest 449 517 32,000  Level Atlanta Center
Sat 06:19:59 PM 36.7806 -80.6306 228° Southwest 455 524 32,000  Level Atlanta Center
Sat 06:20:59 PM 36.6961 -80.7431 227° Southwest 455 524 32,000  Level Atlanta Center
Sat 06:21:59 PM 36.6094 -80.8603 227° Southwest 455 524 32,000  Level Atlanta Center
Sat 06:22:59 PM 36.5247 -80.9722 227° Southwest 455 524 32,000  Level Atlanta Center
Sat 06:23:59 PM 36.4378 -81.0867 227° Southwest 460 529 32,000  Level Atlanta Center
Sat 06:24:59 PM 36.3531 -81.2031 228° Southwest 460 529 32,000  Level Atlanta Center
Sat 06:25:59 PM 36.2617 -81.3194 226° Southwest 460 529 32,000  Level Atlanta Center
Sat 06:26:59 PM 36.1786 -81.4303 227° Southwest 460 529 32,000  Level Atlanta Center
Sat 06:27:59 PM 36.0892 -81.5439 226° Southwest 460 529 32,000  Level Atlanta Center
Sat 06:28:59 PM 35.9997 -81.6594 226° Southwest 460 529 32,000  Level Atlanta Center
Sat 06:29:59 PM 35.9164 -81.7722 228° Southwest 460 529 32,000  Level Atlanta Center
Sat 06:30:59 PM 35.8267 -81.8847 225° Southwest 460 529 32,000  Level Atlanta Center
Sat 06:31:59 PM 35.7389 -81.9972 226° Southwest 460 529 32,000  Level Atlanta Center
Sat 06:32:59 PM 35.6531 -82.1067 226° Southwest 455 524 32,000  Level Atlanta Center
Sat 06:33:59 PM 35.5669 -82.2183 227° Southwest 455 524 32,000 -100 Level Atlanta Center
Sat 06:34:59 PM 35.4850 -82.3172 225° Southwest 460 529 31,800 -600 Descending Atlanta Center
Sat 06:35:59 PM 35.3969 -82.4311 227° Southwest 460 529 30,800 -1,000 Descending Atlanta Center
Sat 06:36:59 PM 35.3106 -82.5397 226° Southwest 460 529 29,800 -900 Descending Atlanta Center
Sat 06:37:59 PM 35.2139 -82.6558 224° Southwest 460 529 29,000 -400 Descending Atlanta Center
Sat 06:38:59 PM 35.1275 -82.7664 226° Southwest 454 522 29,000  Level Atlanta Center
Sat 06:39:59 PM 35.0472 -82.8794 229° Southwest 454 522 29,000 -200 Level Atlanta Center
Sat 06:40:59 PM 35.0108 -83.0244 253° West 437 503 28,600 -550 Descending Atlanta Center
Sat 06:41:59 PM 34.9786 -83.1642 254° West 437 503 27,900 -750 Descending Atlanta Center
Sat 06:42:59 PM 34.9442 -83.3014 253° West 437 503 27,100 -450 Descending Atlanta Center
Sat 06:43:59 PM 34.9114 -83.4358 253° West 423 487 27,000 -50 Descending Atlanta Center
Sat 06:44:59 PM 34.8806 -83.5603 253° West 401 461 27,000  Level Atlanta Center
Sat 06:45:59 PM 34.8036 -83.6442 222° Southwest 380 437 27,000 -400 Level Atlanta Center
Sat 06:46:59 PM 34.6850 -83.6800 194° South 381 438 26,200 -1,550 Descending Atlanta Center
Sat 06:47:59 PM 34.5619 -83.7133 193° South 424 488 23,900 -2,850 Descending Atlanta Center
Sat 06:48:59 PM 34.4408 -83.7492 194° South 437 503 20,500 -3,700 Descending Atlanta Center
Sat 06:49:59 PM 34.3219 -83.7797 192° South 443 510 16,500 -3,250 Descending Atlanta Center
Sat 06:50:59 PM 34.2114 -83.8103 193° South 430 495 14,000 -2,150 Descending Atlanta Center
Sat 06:51:59 PM 34.1156 -83.8531 200° South 397 457 12,200 -1,381 Descending Atlanta Center
Sat 06:52:52 PM 34.0500 -83.9000 211° Southwest 310 357 11,400 -903 Descending Atlanta TRACON
Sat 06:53:52 PM 34.0000 -83.9667 228° Southwest 279 321 10,500 -800 Descending Atlanta TRACON
Sat 06:54:52 PM 33.9333 -84.0500 226° Southwest 293 337 9,800 -1,200 Descending Atlanta TRACON
Sat 06:55:52 PM 33.8500 -84.0667 189° South 295 339 8,100 -1,650 Descending Atlanta TRACON
Sat 06:56:52 PM 33.7833 -84.1167 212° Southwest 285 328 6,500 -1,200 Descending Atlanta TRACON
Sat 06:57:52 PM 33.7167 -84.1500 203° Southwest 254 292 5,700 -850 Descending Atlanta TRACON
Sat 06:58:52 PM 33.6833 -84.2000 231° Southwest 211 243 4,800 -1,100 Descending Atlanta TRACON
Sat 06:59:52 PM 33.6667 -84.2667 253° West 178 205 3,500 -1,100 Descending Atlanta TRACON
Sat 07:00:52 PM 33.6500 -84.3167 248° West 154 177 2,600 -850 Descending Atlanta TRACON
Sat 07:01:52 PM 33.6500 -84.3667 270° West 139 160 1,800 -800 Descending Atlanta TRACON
Sat 07:03:00 PM 33.6367 -84.4279 270° West  Level Estimated
Sat 07:10:00 PM 33.6367 -84.4279 103° East  Level Estimated
Sat 07:11:00 PM 33.6367 -84.4279 103° East  Level Estimated

Login

Don't have an account? Register now (free) for customized features, flight alerts, and more!